sensor_id;sensor_type;location;lat;lon;timestamp;pressure;altitude;pressure_sealevel;temperature;humidity
41862;BME280;27537;57.134;-2.136;2022-10-31T00:01:11;100076.59;;;12.01;100.00
41862;BME280;27537;57.134;-2.136;2022-10-31T00:03:38;100097.75;;;12.14;100.00
41862;BME280;27537;57.134;-2.136;2022-10-31T00:06:05;100073.13;;;12.01;100.00
41862;BME280;27537;57.134;-2.136;2022-10-31T00:08:32;100059.44;;;11.78;100.00
41862;BME280;27537;57.134;-2.136;2022-10-31T00:10:59;100093.00;;;12.05;100.00
41862;BME280;27537;57.134;-2.136;2022-10-31T00:13:26;100073.28;;;11.80;100.00
41862;BME280;27537;57.134;-2.136;2022-10-31T00:15:52;100104.59;;;12.01;100.00
41862;BME280;27537;57.134;-2.136;2022-10-31T00:18:19;100091.88;;;11.93;100.00
41862;BME280;27537;57.134;-2.136;2022-10-31T00:20:46;100113.47;;;11.98;100.00
41862;BME280;27537;57.134;-2.136;2022-10-31T00:23:13;100097.03;;;11.94;100.00
41862;BME280;27537;57.134;-2.136;2022-10-31T00:25:39;100118.31;;;12.06;100.00
41862;BME280;27537;57.134;-2.136;2022-10-31T00:28:08;100123.28;;;11.94;100.00
41862;BME280;27537;57.134;-2.136;2022-10-31T00:30:36;100122.97;;;11.83;100.00
41862;BME280;27537;57.134;-2.136;2022-10-31T00:33:05;100114.19;;;11.67;100.00
41862;BME280;27537;57.134;-2.136;2022-10-31T00:35:32;100146.06;;;11.94;100.00
41862;BME280;27537;57.134;-2.136;2022-10-31T00:37:59;100090.19;;;11.41;100.00
41862;BME280;27537;57.134;-2.136;2022-10-31T00:40:26;100132.72;;;11.81;100.00
41862;BME280;27537;57.134;-2.136;2022-10-31T00:42:53;100133.84;;;11.75;100.00
41862;BME280;27537;57.134;-2.136;2022-10-31T00:45:19;100134.09;;;11.71;100.00
41862;BME280;27537;57.134;-2.136;2022-10-31T00:47:46;100133.09;;;11.73;100.00
41862;BME280;27537;57.134;-2.136;2022-10-31T00:50:13;100148.06;;;11.71;100.00
41862;BME280;27537;57.134;-2.136;2022-10-31T00:52:39;100143.88;;;11.85;100.00
41862;BME280;27537;57.134;-2.136;2022-10-31T00:55:06;100114.75;;;11.56;100.00
41862;BME280;27537;57.134;-2.136;2022-10-31T00:57:33;100134.34;;;11.66;100.00
41862;BME280;27537;57.134;-2.136;2022-10-31T01:00:00;100148.81;;;11.73;100.00
41862;BME280;27537;57.134;-2.136;2022-10-31T01:02:26;100123.94;;;11.47;100.00
41862;BME280;27537;57.134;-2.136;2022-10-31T01:04:53;100133.72;;;11.61;100.00
41862;BME280;27537;57.134;-2.136;2022-10-31T01:07:20;100133.91;;;11.58;100.00
41862;BME280;27537;57.134;-2.136;2022-10-31T01:09:47;100145.06;;;11.62;100.00
41862;BME280;27537;57.134;-2.136;2022-10-31T01:12:13;100162.47;;;11.80;100.00
41862;BME280;27537;57.134;-2.136;2022-10-31T01:14:44;100149.44;;;11.78;100.00
41862;BME280;27537;57.134;-2.136;2022-10-31T01:17:12;100166.13;;;11.77;100.00
41862;BME280;27537;57.134;-2.136;2022-10-31T01:19:38;100158.69;;;11.86;100.00
41862;BME280;27537;57.134;-2.136;2022-10-31T01:22:05;100113.84;;;11.39;100.00
41862;BME280;27537;57.134;-2.136;2022-10-31T01:24:33;100164.06;;;11.83;100.00
41862;BME280;27537;57.134;-2.136;2022-10-31T01:27:00;100146.97;;;11.75;100.00
41862;BME280;27537;57.134;-2.136;2022-10-31T01:29:26;100134.19;;;11.52;100.00
41862;BME280;27537;57.134;-2.136;2022-10-31T01:31:53;100133.91;;;11.40;100.00
41862;BME280;27537;57.134;-2.136;2022-10-31T01:34:20;100175.53;;;11.64;100.00
41862;BME280;27537;57.134;-2.136;2022-10-31T01:36:47;100168.50;;;11.65;100.00
41862;BME280;27537;57.134;-2.136;2022-10-31T01:39:18;100167.66;;;11.64;100.00
41862;BME280;27537;57.134;-2.136;2022-10-31T01:41:48;100175.69;;;11.61;100.00
41862;BME280;27537;57.134;-2.136;2022-10-31T01:46:52;100180.69;;;11.66;100.00
41862;BME280;27537;57.134;-2.136;2022-10-31T01:51:56;100154.00;;;11.57;100.00
41862;BME280;27537;57.134;-2.136;2022-10-31T01:54:28;100159.94;;;11.61;100.00
41862;BME280;27537;57.134;-2.136;2022-10-31T01:56:57;100164.66;;;11.54;100.00
41862;BME280;27537;57.134;-2.136;2022-10-31T01:59:29;100170.75;;;11.72;100.00
41862;BME280;27537;57.134;-2.136;2022-10-31T02:01:57;100154.44;;;11.83;100.00
41862;BME280;27537;57.134;-2.136;2022-10-31T02:04:25;100169.94;;;11.88;100.00
41862;BME280;27537;57.134;-2.136;2022-10-31T02:07:04;100161.44;;;12.00;100.00
41862;BME280;27537;57.134;-2.136;2022-10-31T02:09:31;100160.88;;;12.11;100.00
41862;BME280;27537;57.134;-2.136;2022-10-31T02:11:59;100156.44;;;12.13;100.00
41862;BME280;27537;57.134;-2.136;2022-10-31T02:14:28;100152.06;;;11.96;100.00
41862;BME280;27537;57.134;-2.136;2022-10-31T02:16:56;100167.75;;;12.13;100.00
41862;BME280;27537;57.134;-2.136;2022-10-31T02:30:23;100136.97;;;12.17;100.00
41862;BME280;27537;57.134;-2.136;2022-10-31T02:33:03;100142.50;;;12.11;100.00
41862;BME280;27537;57.134;-2.136;2022-10-31T02:38:26;100141.78;;;12.25;100.00
41862;BME280;27537;57.134;-2.136;2022-10-31T02:44:12;100184.41;;;12.46;100.00
41862;BME280;27537;57.134;-2.136;2022-10-31T02:47:03;100165.00;;;12.32;100.00
41862;BME280;27537;57.134;-2.136;2022-10-31T02:49:42;100169.69;;;12.43;100.00
41862;BME280;27537;57.134;-2.136;2022-10-31T02:52:23;100183.88;;;12.39;100.00
41862;BME280;27537;57.134;-2.136;2022-10-31T02:54:50;100185.16;;;12.48;100.00
41862;BME280;27537;57.134;-2.136;2022-10-31T02:57:21;100191.00;;;12.37;100.00
41862;BME280;27537;57.134;-2.136;2022-10-31T03:00:00;100183.84;;;12.23;100.00
41862;BME280;27537;57.134;-2.136;2022-10-31T03:11:07;100196.47;;;12.17;100.00
41862;BME280;27537;57.134;-2.136;2022-10-31T03:13:39;100196.69;;;12.45;100.00
41862;BME280;27537;57.134;-2.136;2022-10-31T03:16:09;100194.66;;;12.50;100.00
41862;BME280;27537;57.134;-2.136;2022-10-31T03:18:59;100202.28;;;12.55;100.00
41862;BME280;27537;57.134;-2.136;2022-10-31T03:21:32;100168.13;;;12.39;100.00
41862;BME280;27537;57.134;-2.136;2022-10-31T03:24:04;100213.88;;;12.51;100.00
41862;BME280;27537;57.134;-2.136;2022-10-31T03:26:34;100161.09;;;12.24;100.00
41862;BME280;27537;57.134;-2.136;2022-10-31T03:29:06;100201.78;;;12.48;100.00
41862;BME280;27537;57.134;-2.136;2022-10-31T03:31:40;100203.44;;;12.33;100.00
41862;BME280;27537;57.134;-2.136;2022-10-31T03:34:09;100198.28;;;12.48;100.00
41862;BME280;27537;57.134;-2.136;2022-10-31T03:36:40;100152.84;;;12.14;100.00
41862;BME280;27537;57.134;-2.136;2022-10-31T03:39:10;100217.94;;;12.57;100.00
41862;BME280;27537;57.134;-2.136;2022-10-31T03:41:42;100201.19;;;12.43;100.00
41862;BME280;27537;57.134;-2.136;2022-10-31T03:44:19;100209.06;;;12.43;100.00
41862;BME280;27537;57.134;-2.136;2022-10-31T03:46:47;100196.63;;;12.47;100.00
41862;BME280;27537;57.134;-2.136;2022-10-31T03:49:15;100199.72;;;12.53;100.00
41862;BME280;27537;57.134;-2.136;2022-10-31T03:57:22;100186.50;;;12.39;100.00
41862;BME280;27537;57.134;-2.136;2022-10-31T03:59:55;100207.13;;;12.47;100.00
41862;BME280;27537;57.134;-2.136;2022-10-31T04:02:27;100198.03;;;12.37;100.00
41862;BME280;27537;57.134;-2.136;2022-10-31T04:04:56;100190.66;;;12.27;100.00
41862;BME280;27537;57.134;-2.136;2022-10-31T04:07:28;100180.03;;;12.13;100.00
41862;BME280;27537;57.134;-2.136;2022-10-31T04:09:57;100178.59;;;12.23;100.00
41862;BME280;27537;57.134;-2.136;2022-10-31T04:12:27;100174.94;;;12.10;100.00
41862;BME280;27537;57.134;-2.136;2022-10-31T04:14:56;100170.31;;;12.15;100.00
41862;BME280;27537;57.134;-2.136;2022-10-31T04:17:27;100167.56;;;12.01;100.00
41862;BME280;27537;57.134;-2.136;2022-10-31T04:19:59;100174.38;;;12.21;100.00
41862;BME280;27537;57.134;-2.136;2022-10-31T04:22:26;100133.94;;;11.91;100.00
41862;BME280;27537;57.134;-2.136;2022-10-31T04:24:53;100150.13;;;12.00;100.00
41862;BME280;27537;57.134;-2.136;2022-10-31T04:27:20;100162.81;;;12.07;100.00
41862;BME280;27537;57.134;-2.136;2022-10-31T04:29:47;100143.16;;;11.99;100.00
41862;BME280;27537;57.134;-2.136;2022-10-31T04:32:16;100112.41;;;11.85;100.00
41862;BME280;27537;57.134;-2.136;2022-10-31T04:34:43;100171.69;;;12.22;100.00
41862;BME280;27537;57.134;-2.136;2022-10-31T04:37:09;100120.09;;;11.88;100.00
41862;BME280;27537;57.134;-2.136;2022-10-31T04:39:36;100135.56;;;11.94;100.00
41862;BME280;27537;57.134;-2.136;2022-10-31T04:42:03;100178.25;;;12.13;100.00
41862;BME280;27537;57.134;-2.136;2022-10-31T04:44:30;100179.38;;;12.09;100.00
41862;BME280;27537;57.134;-2.136;2022-10-31T04:46:56;100147.94;;;12.08;100.00
41862;BME280;27537;57.134;-2.136;2022-10-31T04:49:23;100185.91;;;12.34;100.00
41862;BME280;27537;57.134;-2.136;2022-10-31T04:51:50;100154.34;;;12.02;100.00
41862;BME280;27537;57.134;-2.136;2022-10-31T04:54:17;100158.63;;;12.21;100.00
41862;BME280;27537;57.134;-2.136;2022-10-31T04:56:44;100167.34;;;12.21;100.00
41862;BME280;27537;57.134;-2.136;2022-10-31T04:59:11;100142.47;;;11.95;100.00
41862;BME280;27537;57.134;-2.136;2022-10-31T05:01:37;100162.09;;;12.21;100.00
41862;BME280;27537;57.134;-2.136;2022-10-31T05:04:04;100158.41;;;12.25;100.00
41862;BME280;27537;57.134;-2.136;2022-10-31T05:06:31;100132.81;;;12.13;100.00
41862;BME280;27537;57.134;-2.136;2022-10-31T05:08:57;100140.84;;;12.10;100.00
41862;BME280;27537;57.134;-2.136;2022-10-31T05:11:25;100166.66;;;12.18;100.00
41862;BME280;27537;57.134;-2.136;2022-10-31T05:13:51;100122.38;;;11.78;100.00
41862;BME280;27537;57.134;-2.136;2022-10-31T05:16:18;100144.50;;;11.90;100.00
41862;BME280;27537;57.134;-2.136;2022-10-31T05:18:45;100170.19;;;12.01;100.00
41862;BME280;27537;57.134;-2.136;2022-10-31T05:21:11;100152.25;;;12.09;100.00
41862;BME280;27537;57.134;-2.136;2022-10-31T05:23:38;100113.44;;;11.65;100.00
41862;BME280;27537;57.134;-2.136;2022-10-31T05:26:12;100126.22;;;11.88;100.00
41862;BME280;27537;57.134;-2.136;2022-10-31T05:28:39;100118.91;;;11.77;100.00
41862;BME280;27537;57.134;-2.136;2022-10-31T05:31:06;100146.59;;;12.01;100.00
41862;BME280;27537;57.134;-2.136;2022-10-31T05:33:33;100135.47;;;11.78;100.00
41862;BME280;27537;57.134;-2.136;2022-10-31T05:35:59;100176.78;;;11.92;100.00
41862;BME280;27537;57.134;-2.136;2022-10-31T05:38:26;100163.31;;;11.81;100.00
41862;BME280;27537;57.134;-2.136;2022-10-31T05:40:56;100173.66;;;12.01;100.00
41862;BME280;27537;57.134;-2.136;2022-10-31T05:43:32;100161.78;;;11.94;100.00
41862;BME280;27537;57.134;-2.136;2022-10-31T05:45:58;100177.56;;;12.10;100.00
41862;BME280;27537;57.134;-2.136;2022-10-31T05:48:25;100137.50;;;11.90;100.00
41862;BME280;27537;57.134;-2.136;2022-10-31T05:50:52;100133.34;;;11.69;100.00
41862;BME280;27537;57.134;-2.136;2022-10-31T05:53:18;100160.63;;;12.00;100.00
41862;BME280;27537;57.134;-2.136;2022-10-31T05:55:46;100160.66;;;12.15;100.00
41862;BME280;27537;57.134;-2.136;2022-10-31T05:58:12;100147.00;;;12.09;100.00
41862;BME280;27537;57.134;-2.136;2022-10-31T06:00:39;100148.03;;;12.06;100.00
41862;BME280;27537;57.134;-2.136;2022-10-31T06:03:07;100148.91;;;12.23;100.00
41862;BME280;27537;57.134;-2.136;2022-10-31T06:05:39;100137.78;;;12.18;100.00
41862;BME280;27537;57.134;-2.136;2022-10-31T06:08:06;100122.19;;;12.14;100.00
41862;BME280;27537;57.134;-2.136;2022-10-31T06:10:33;100140.44;;;12.33;100.00
41862;BME280;27537;57.134;-2.136;2022-10-31T06:12:59;100091.94;;;11.91;100.00
41862;BME280;27537;57.134;-2.136;2022-10-31T06:15:26;100135.19;;;12.33;100.00
41862;BME280;27537;57.134;-2.136;2022-10-31T06:18:04;100093.50;;;11.95;100.00
41862;BME280;27537;57.134;-2.136;2022-10-31T06:20:31;100155.88;;;12.40;100.00
41862;BME280;27537;57.134;-2.136;2022-10-31T06:22:58;100153.41;;;12.37;100.00
41862;BME280;27537;57.134;-2.136;2022-10-31T06:25:26;100130.00;;;12.32;100.00
41862;BME280;27537;57.134;-2.136;2022-10-31T06:27:54;100158.81;;;12.33;100.00
41862;BME280;27537;57.134;-2.136;2022-10-31T06:30:22;100167.44;;;12.35;100.00
41862;BME280;27537;57.134;-2.136;2022-10-31T06:32:49;100139.00;;;12.28;100.00
41862;BME280;27537;57.134;-2.136;2022-10-31T06:35:16;100153.16;;;12.41;100.00
41862;BME280;27537;57.134;-2.136;2022-10-31T06:37:49;100124.78;;;12.48;100.00
41862;BME280;27537;57.134;-2.136;2022-10-31T06:40:16;100136.31;;;12.61;100.00
41862;BME280;27537;57.134;-2.136;2022-10-31T06:42:43;100089.22;;;12.42;100.00
41862;BME280;27537;57.134;-2.136;2022-10-31T06:45:10;100090.56;;;12.49;100.00
41862;BME280;27537;57.134;-2.136;2022-10-31T06:47:36;100110.22;;;12.58;100.00
41862;BME280;27537;57.134;-2.136;2022-10-31T06:50:23;100103.28;;;12.57;100.00
41862;BME280;27537;57.134;-2.136;2022-10-31T06:52:54;100120.69;;;12.74;100.00
41862;BME280;27537;57.134;-2.136;2022-10-31T06:55:23;100103.59;;;12.51;100.00
41862;BME280;27537;57.134;-2.136;2022-10-31T06:58:00;100145.44;;;12.70;100.00
41862;BME280;27537;57.134;-2.136;2022-10-31T07:00:29;100149.66;;;12.88;100.00
41862;BME280;27537;57.134;-2.136;2022-10-31T07:03:01;100155.41;;;12.95;100.00
41862;BME280;27537;57.134;-2.136;2022-10-31T07:05:28;100140.78;;;12.91;100.00
41862;BME280;27537;57.134;-2.136;2022-10-31T07:08:00;100170.56;;;13.06;100.00
41862;BME280;27537;57.134;-2.136;2022-10-31T07:10:29;100160.72;;;13.09;100.00
41862;BME280;27537;57.134;-2.136;2022-10-31T07:13:03;100162.03;;;13.02;100.00
41862;BME280;27537;57.134;-2.136;2022-10-31T07:15:35;100154.88;;;13.04;100.00
41862;BME280;27537;57.134;-2.136;2022-10-31T07:18:04;100148.38;;;12.96;100.00
41862;BME280;27537;57.134;-2.136;2022-10-31T07:20:31;100157.97;;;12.97;100.00
41862;BME280;27537;57.134;-2.136;2022-10-31T07:22:58;100178.50;;;13.20;100.00
41862;BME280;27537;57.134;-2.136;2022-10-31T07:25:25;100177.00;;;13.16;100.00
41862;BME280;27537;57.134;-2.136;2022-10-31T07:27:52;100182.22;;;13.02;100.00
41862;BME280;27537;57.134;-2.136;2022-10-31T07:30:19;100192.69;;;13.18;100.00
41862;BME280;27537;57.134;-2.136;2022-10-31T07:32:48;100202.84;;;13.24;100.00
41862;BME280;27537;57.134;-2.136;2022-10-31T07:35:23;100189.03;;;13.36;100.00
41862;BME280;27537;57.134;-2.136;2022-10-31T07:37:50;100185.88;;;13.29;100.00
41862;BME280;27537;57.134;-2.136;2022-10-31T07:40:18;100163.16;;;13.28;100.00
41862;BME280;27537;57.134;-2.136;2022-10-31T07:42:48;100169.53;;;13.24;100.00
41862;BME280;27537;57.134;-2.136;2022-10-31T07:45:17;100167.31;;;13.33;100.00
41862;BME280;27537;57.134;-2.136;2022-10-31T07:47:52;100178.69;;;13.17;100.00
41862;BME280;27537;57.134;-2.136;2022-10-31T07:50:30;100184.34;;;13.25;100.00
41862;BME280;27537;57.134;-2.136;2022-10-31T07:53:06;100189.31;;;13.32;100.00
41862;BME280;27537;57.134;-2.136;2022-10-31T07:55:33;100184.38;;;13.09;100.00
41862;BME280;27537;57.134;-2.136;2022-10-31T07:58:09;100182.78;;;13.07;100.00
41862;BME280;27537;57.134;-2.136;2022-10-31T08:00:40;100195.16;;;13.05;100.00
41862;BME280;27537;57.134;-2.136;2022-10-31T08:03:09;100196.31;;;13.15;100.00
41862;BME280;27537;57.134;-2.136;2022-10-31T08:05:37;100206.44;;;13.23;100.00
41862;BME280;27537;57.134;-2.136;2022-10-31T08:08:04;100195.34;;;13.02;100.00
41862;BME280;27537;57.134;-2.136;2022-10-31T08:10:32;100192.50;;;13.21;100.00
41862;BME280;27537;57.134;-2.136;2022-10-31T08:13:01;100201.00;;;13.10;100.00
41862;BME280;27537;57.134;-2.136;2022-10-31T08:15:28;100193.69;;;13.31;100.00
41862;BME280;27537;57.134;-2.136;2022-10-31T08:17:55;100203.28;;;13.32;100.00
41862;BME280;27537;57.134;-2.136;2022-10-31T08:20:22;100196.75;;;13.23;100.00
41862;BME280;27537;57.134;-2.136;2022-10-31T08:23:00;100197.81;;;13.51;100.00
41862;BME280;27537;57.134;-2.136;2022-10-31T08:25:28;100193.03;;;13.58;100.00
41862;BME280;27537;57.134;-2.136;2022-10-31T08:28:02;100175.84;;;13.66;100.00
41862;BME280;27537;57.134;-2.136;2022-10-31T08:30:31;100199.00;;;13.45;100.00
41862;BME280;27537;57.134;-2.136;2022-10-31T08:33:12;100182.78;;;13.53;100.00
41862;BME280;27537;57.134;-2.136;2022-10-31T08:35:40;100160.63;;;13.27;100.00
41862;BME280;27537;57.134;-2.136;2022-10-31T08:38:09;100184.69;;;13.51;100.00
41862;BME280;27537;57.134;-2.136;2022-10-31T08:40:36;100171.41;;;13.83;100.00
41862;BME280;27537;57.134;-2.136;2022-10-31T08:43:10;100136.31;;;13.68;100.00
41862;BME280;27537;57.134;-2.136;2022-10-31T08:45:37;100191.13;;;13.76;100.00
41862;BME280;27537;57.134;-2.136;2022-10-31T08:48:08;100184.19;;;14.03;100.00
41862;BME280;27537;57.134;-2.136;2022-10-31T08:50:36;100181.34;;;13.92;100.00
41862;BME280;27537;57.134;-2.136;2022-10-31T08:53:05;100182.75;;;13.83;100.00
41862;BME280;27537;57.134;-2.136;2022-10-31T08:55:34;100186.13;;;13.85;100.00
41862;BME280;27537;57.134;-2.136;2022-10-31T08:58:03;100159.81;;;14.00;100.00
41862;BME280;27537;57.134;-2.136;2022-10-31T09:00:31;100178.91;;;14.03;100.00
41862;BME280;27537;57.134;-2.136;2022-10-31T09:03:00;100169.78;;;14.23;100.00
41862;BME280;27537;57.134;-2.136;2022-10-31T09:05:27;100149.97;;;13.89;100.00
41862;BME280;27537;57.134;-2.136;2022-10-31T09:07:58;100176.09;;;14.07;100.00
41862;BME280;27537;57.134;-2.136;2022-10-31T09:10:27;100181.19;;;14.24;100.00
41862;BME280;27537;57.134;-2.136;2022-10-31T09:12:59;100152.22;;;13.95;100.00
41862;BME280;27537;57.134;-2.136;2022-10-31T09:15:27;100138.22;;;13.95;100.00
41862;BME280;27537;57.134;-2.136;2022-10-31T09:17:54;100149.03;;;13.76;100.00
41862;BME280;27537;57.134;-2.136;2022-10-31T09:20:21;100157.84;;;13.89;100.00
41862;BME280;27537;57.134;-2.136;2022-10-31T09:22:58;100157.84;;;14.18;100.00
41862;BME280;27537;57.134;-2.136;2022-10-31T09:25:27;100162.44;;;14.29;100.00
41862;BME280;27537;57.134;-2.136;2022-10-31T09:27:58;100155.59;;;14.12;100.00
41862;BME280;27537;57.134;-2.136;2022-10-31T09:30:29;100159.34;;;13.93;100.00
41862;BME280;27537;57.134;-2.136;2022-10-31T09:32:57;100149.13;;;14.03;100.00
41862;BME280;27537;57.134;-2.136;2022-10-31T09:35:25;100141.97;;;14.05;100.00
41862;BME280;27537;57.134;-2.136;2022-10-31T09:37:56;100125.81;;;14.11;100.00
41862;BME280;27537;57.134;-2.136;2022-10-31T09:51:37;100140.69;;;14.68;100.00
41862;BME280;27537;57.134;-2.136;2022-10-31T09:54:14;100127.44;;;14.41;100.00
41862;BME280;27537;57.134;-2.136;2022-10-31T09:56:43;100101.50;;;14.35;100.00
41862;BME280;27537;57.134;-2.136;2022-10-31T09:59:26;100112.03;;;14.76;100.00
41862;BME280;27537;57.134;-2.136;2022-10-31T10:01:58;100121.38;;;14.68;100.00
41862;BME280;27537;57.134;-2.136;2022-10-31T10:04:31;100121.19;;;14.71;100.00
41862;BME280;27537;57.134;-2.136;2022-10-31T10:07:04;100134.41;;;14.42;100.00
41862;BME280;27537;57.134;-2.136;2022-10-31T10:09:32;100119.34;;;14.44;100.00
41862;BME280;27537;57.134;-2.136;2022-10-31T10:12:16;100136.38;;;14.53;100.00
41862;BME280;27537;57.134;-2.136;2022-10-31T10:15:06;100130.16;;;14.54;100.00
41862;BME280;27537;57.134;-2.136;2022-10-31T10:21:09;100129.59;;;14.63;100.00
41862;BME280;27537;57.134;-2.136;2022-10-31T10:26:18;100128.06;;;14.17;100.00
41862;BME280;27537;57.134;-2.136;2022-10-31T10:28:50;100114.41;;;14.25;100.00
41862;BME280;27537;57.134;-2.136;2022-10-31T10:31:23;100118.44;;;14.45;100.00
41862;BME280;27537;57.134;-2.136;2022-10-31T10:36:32;100149.66;;;14.37;100.00
41862;BME280;27537;57.134;-2.136;2022-10-31T10:39:07;100117.00;;;14.39;100.00
41862;BME280;27537;57.134;-2.136;2022-10-31T10:41:36;100132.81;;;14.39;100.00
41862;BME280;27537;57.134;-2.136;2022-10-31T10:44:08;100138.25;;;14.51;100.00
41862;BME280;27537;57.134;-2.136;2022-10-31T10:46:51;100137.69;;;14.60;100.00
41862;BME280;27537;57.134;-2.136;2022-10-31T10:49:51;100147.50;;;14.43;100.00
41862;BME280;27537;57.134;-2.136;2022-10-31T10:55:27;100144.63;;;14.75;100.00
41862;BME280;27537;57.134;-2.136;2022-10-31T10:58:03;100151.34;;;14.38;100.00
41862;BME280;27537;57.134;-2.136;2022-10-31T11:00:37;100133.91;;;13.94;100.00
41862;BME280;27537;57.134;-2.136;2022-10-31T11:03:05;100125.56;;;14.29;100.00
41862;BME280;27537;57.134;-2.136;2022-10-31T11:05:48;100156.50;;;14.39;100.00
41862;BME280;27537;57.134;-2.136;2022-10-31T11:08:30;100150.31;;;14.40;100.00
41862;BME280;27537;57.134;-2.136;2022-10-31T11:11:11;100123.69;;;14.45;100.00
41862;BME280;27537;57.134;-2.136;2022-10-31T11:13:42;100137.94;;;14.55;100.00
41862;BME280;27537;57.134;-2.136;2022-10-31T11:16:35;100167.88;;;14.69;100.00
41862;BME280;27537;57.134;-2.136;2022-10-31T11:21:41;100141.53;;;14.54;100.00
41862;BME280;27537;57.134;-2.136;2022-10-31T11:26:36;100150.72;;;14.34;100.00
41862;BME280;27537;57.134;-2.136;2022-10-31T11:29:05;100135.06;;;14.46;100.00
41862;BME280;27537;57.134;-2.136;2022-10-31T11:31:34;100125.06;;;14.65;100.00
41862;BME280;27537;57.134;-2.136;2022-10-31T11:34:12;100135.38;;;14.83;100.00
41862;BME280;27537;57.134;-2.136;2022-10-31T11:36:43;100136.66;;;14.48;100.00
41862;BME280;27537;57.134;-2.136;2022-10-31T11:39:21;100141.34;;;14.72;100.00
41862;BME280;27537;57.134;-2.136;2022-10-31T11:41:49;100137.03;;;14.98;100.00
41862;BME280;27537;57.134;-2.136;2022-10-31T11:44:27;100128.53;;;15.33;100.00
41862;BME280;27537;57.134;-2.136;2022-10-31T11:47:03;100118.00;;;15.33;100.00
41862;BME280;27537;57.134;-2.136;2022-10-31T11:52:01;100125.59;;;14.97;100.00
41862;BME280;27537;57.134;-2.136;2022-10-31T11:54:34;100101.34;;;14.92;100.00
41862;BME280;27537;57.134;-2.136;2022-10-31T11:57:03;100127.19;;;14.73;100.00
41862;BME280;27537;57.134;-2.136;2022-10-31T11:59:31;100136.31;;;15.09;100.00
41862;BME280;27537;57.134;-2.136;2022-10-31T12:02:01;100140.06;;;15.05;100.00
41862;BME280;27537;57.134;-2.136;2022-10-31T12:04:37;100129.00;;;14.72;100.00
41862;BME280;27537;57.134;-2.136;2022-10-31T12:07:06;100131.28;;;14.64;100.00
41862;BME280;27537;57.134;-2.136;2022-10-31T12:09:34;100125.69;;;14.41;100.00
41862;BME280;27537;57.134;-2.136;2022-10-31T12:15:13;100123.69;;;14.59;100.00
41862;BME280;27537;57.134;-2.136;2022-10-31T12:42:48;100097.91;;;15.05;100.00
41862;BME280;27537;57.134;-2.136;2022-10-31T12:59:33;100113.41;;;14.96;100.00
41862;BME280;27537;57.134;-2.136;2022-10-31T13:07:06;100115.03;;;15.25;100.00
41862;BME280;27537;57.134;-2.136;2022-10-31T13:12:07;100095.59;;;15.13;100.00
41862;BME280;27537;57.134;-2.136;2022-10-31T13:14:42;100084.56;;;14.80;100.00
41862;BME280;27537;57.134;-2.136;2022-10-31T13:17:39;100086.97;;;15.11;100.00
41862;BME280;27537;57.134;-2.136;2022-10-31T13:22:50;100070.94;;;15.27;100.00
41862;BME280;27537;57.134;-2.136;2022-10-31T13:25:23;100087.69;;;15.13;100.00
41862;BME280;27537;57.134;-2.136;2022-10-31T13:28:05;100081.59;;;15.12;100.00
41862;BME280;27537;57.134;-2.136;2022-10-31T13:30:40;100065.38;;;14.78;100.00
41862;BME280;27537;57.134;-2.136;2022-10-31T13:33:10;100070.50;;;15.33;100.00
41862;BME280;27537;57.134;-2.136;2022-10-31T13:38:45;100061.34;;;15.51;100.00
41862;BME280;27537;57.134;-2.136;2022-10-31T13:44:27;100065.88;;;15.24;100.00
41862;BME280;27537;57.134;-2.136;2022-10-31T13:46:59;100048.97;;;15.13;100.00
41862;BME280;27537;57.134;-2.136;2022-10-31T13:52:13;100026.88;;;14.76;100.00
41862;BME280;27537;57.134;-2.136;2022-10-31T13:54:48;100028.59;;;14.90;100.00
41862;BME280;27537;57.134;-2.136;2022-10-31T13:57:35;100036.41;;;14.91;100.00
41862;BME280;27537;57.134;-2.136;2022-10-31T14:02:49;100034.31;;;15.35;100.00
41862;BME280;27537;57.134;-2.136;2022-10-31T14:05:25;100042.63;;;15.03;100.00
41862;BME280;27537;57.134;-2.136;2022-10-31T14:07:53;100013.31;;;14.82;100.00
41862;BME280;27537;57.134;-2.136;2022-10-31T14:12:52;100023.13;;;14.93;100.00
41862;BME280;27537;57.134;-2.136;2022-10-31T14:15:30;100025.19;;;14.75;100.00
41862;BME280;27537;57.134;-2.136;2022-10-31T14:18:03;100014.16;;;14.83;100.00
41862;BME280;27537;57.134;-2.136;2022-10-31T14:26:19;100013.34;;;14.68;100.00
41862;BME280;27537;57.134;-2.136;2022-10-31T14:28:48;99995.59;;;14.57;100.00
41862;BME280;27537;57.134;-2.136;2022-10-31T14:31:38;100005.75;;;14.36;100.00
41862;BME280;27537;57.134;-2.136;2022-10-31T14:37:02;100011.59;;;13.99;100.00
41862;BME280;27537;57.134;-2.136;2022-10-31T14:50:59;99986.94;;;14.15;100.00
41862;BME280;27537;57.134;-2.136;2022-10-31T14:53:31;99985.41;;;13.83;100.00
41862;BME280;27537;57.134;-2.136;2022-10-31T14:55:59;99990.22;;;14.04;100.00
41862;BME280;27537;57.134;-2.136;2022-10-31T14:58:41;99977.63;;;13.82;100.00
41862;BME280;27537;57.134;-2.136;2022-10-31T15:01:36;100006.63;;;13.95;100.00
41862;BME280;27537;57.134;-2.136;2022-10-31T15:04:29;100006.63;;;13.95;100.00
41862;BME280;27537;57.134;-2.136;2022-10-31T15:07:47;100000.53;;;13.94;100.00
41862;BME280;27537;57.134;-2.136;2022-10-31T15:09:57;100006.16;;;14.02;100.00
41862;BME280;27537;57.134;-2.136;2022-10-31T15:12:27;99999.50;;;13.82;100.00
41862;BME280;27537;57.134;-2.136;2022-10-31T15:14:55;100000.63;;;13.93;100.00
41862;BME280;27537;57.134;-2.136;2022-10-31T15:17:24;99995.81;;;13.99;100.00
41862;BME280;27537;57.134;-2.136;2022-10-31T15:19:52;100007.19;;;14.00;100.00
41862;BME280;27537;57.134;-2.136;2022-10-31T15:22:22;100000.19;;;14.13;100.00